AirNav   Bose A20 Aviation Headset
 
 446 users online  

KCOI Merritt Island Airport
Merritt Island, Florida, USA

GOING TO MERRITT ISLAND?


FAA INFORMATION EFFECTIVE 11 OCTOBER 2018

Location

FAA Identifier: COI
Lat/Long: 28-20-29.8000N / 080-41-07.7000W
28-20.496667N / 080-41.128333W
28.3416111 / -80.6854722
(estimated)
Elevation: 5.9 ft. / 1.8 m (surveyed)
Variation: 05W (2000)
Time zone: UTC -4 (UTC -5 during Standard Time)
Zip code: 32952

Airport Operations

Airport use: Open to the public
Activation date: 06/1952
Control tower: no
ARTCC: JACKSONVILLE CENTER
FSS: SAINT PETERSBURG FLIGHT SERVICE STATION
NOTAMs facility: PIE (NOTAM-D service available)
Attendance: 0800-2000
Wind indicator: lighted
Segmented circle: yes
Lights: ACTVT MIRL RY 11/29 - CTAF.
Beacon: white-green (lighted land airport)
ACTVT ROTG BCN - CTAF.
International operations: customs landing rights airport

Airport Communications

CTAF/UNICOM: 122.975
WX AWOS-3: 119.025 (321-986-8864)
ORLANDO APCH APPROACH: 134.95 134.95
ORLANDO APCH DEPARTURE: 134.95 134.95
BITHO STAR: 128.375
COSTR STAR: 128.375
MINEE STAR: 134.05
WX AWOS-3PT at TIX (12 nm NW): 120.625 (321-567-6090)
WX ASOS at MLB (14 nm S): PHONE 321-723-7403
WX AWOS-3 at X21 (19 nm NW): 119.725 (321-385-0384)

Nearby radio navigation aids

VOR radial/distance  VOR name  Freq  Var
MLBr356/14.4MELBOURNE VOR/DME110.0007W
ORLr109/36.3ORLANDO VORTAC112.2000E

Airport Services

Fuel available: 100LL JET-A
Parking: tiedowns
Airframe service: MAJOR
Powerplant service: MAJOR
Bottled oxygen: NONE
Bulk oxygen: NONE

Runway Information

Runway 11/29

Dimensions: 3601 x 75 ft. / 1098 x 23 m
Surface: asphalt, in fair condition
Weight bearing capacity: 
Single wheel: 22.0
Runway edge lights: medium intensity
RUNWAY 11  RUNWAY 29
Latitude: 28-20.594410N28-20.397540N
Longitude: 080-41.445940W080-40.812175W
Elevation: 5.9 ft.2.9 ft.
Gradient: 0.1%0.1%
Traffic pattern: leftleft
Runway heading: 114 magnetic, 109 true294 magnetic, 289 true
Markings: nonprecision, in good conditionnonprecision, in good condition
Visual slope indicator: 2-light PAPI on left (3.00 degrees glide path)2-light PAPI on left (3.00 degrees glide path)
Touchdown point: yes, no lightsyes, no lights
Obstructions: 20 ft. bldg, 200 ft. from runway, 250 ft. left of centerline
APCH SLOPE 25:1 TO THE DSPLCD THLD.
25 ft. boat, 700 ft. from runway, 250 ft. right of centerline, 20:1 slope to clear

Airport Ownership and Management from official FAA records

Ownership: Publicly-owned
Owner: TITUSVILLE-COCOA AIRPORT DISTRICT
355 GOLDEN KNIGHTS BLVD
TITUSVILLE, FL 32780
Phone 321-267-8780
CONTACT PERSON: MICHAEL POWELL C.M, ACE
Manager: DEBBIE MARINO
355 GOLDEN KNIGHTS BLVD
TITUSVILLE, FL 32780
Phone 321-267-8780
ARPT PHONE 321-453-2222.

Airport Operational Statistics

Aircraft based on the field: 136
Single engine airplanes: 113
Multi engine airplanes: 16
Jet airplanes: 1
Helicopters: 6
    
Aircraft operations: avg 311/day *
56% local general aviation
42% transient general aviation
1% air taxi
* for 12-month period ending 09 August 2017

Additional Remarks

BANNER TOWING.
24 HR HELICOPTER OPNS SW RAMP.
PATRICK AIR FORCE BASE (COF) CLASS D AIRSPACE IS IN CLOSE PROXIMITY TO MERRITT ISLAND ARPT AND COF CROSSING RWY 11/29 HAS SAME ORIENTATION AS MERRITT ISLAND ARPT.

Instrument Procedures

NOTE: All procedures below are presented as PDF files. If you need a reader for these files, you should download the free Adobe Reader.

NOT FOR NAVIGATION. Please procure official charts for flight.
FAA instrument procedures published for use from 11 October 2018 at 0901Z to 8 November 2018 at 0900Z.

 
STARs - Standard Terminal Arrivals
BITHO SEVEN   download (191KB)
COSTR THREE (RNAV)   2 pages: [1] [2] (287KB)
GOOFY SEVEN   download (246KB)
MINEE FIVE   2 pages: [1] [2] (320KB)
 
IAPs - Instrument Approach Procedures
RNAV (GPS) RWY 11   download (226KB)
NOTE: Special Alternate Minimums apply   download (20KB)
NOTE: Special Take-Off Minimums/Departure Procedures apply   download (162KB)

Other nearby airports with instrument procedures:

KCOF - Patrick Air Force Base (8 nm SE)
KXMR - Cape Canaveral Air Force Station Skid Strip (10 nm NE)
KTIX - Space Coast Regional Airport (12 nm NW)
KMLB - Melbourne International Airport (14 nm S)
KTTS - NASA Shuttle Landing Facility (16 nm N)
X21 - Arthur Dunn Air Park (19 nm NW)
 
Loc | Ops | Rwys | IFR | FBO | Links
Com | Nav | Svcs | Stats | Notes


 
Area around KCOI (Merritt Island Airport)
 
Road maps at: MapQuest Bing Google
 
Aerial photo
WARNING: Photo may not be current or correct
Aerial photo of KCOI (Merritt Island Airport)
Photo by Whitney Van Brink
Photo taken 19-Feb-2007
from a Cessna 177B

Do you have a better or more recent aerial photo of Merritt Island Airport that you would like to share? If so, please send us your photo.

 
Sectional chart

 
Airport distance calculator
Flying to Merritt Island Airport? Find the distance to fly.

From to KCOI

Sunrise and sunset
Times for 18-Oct-2018
 Local
(UTC-4)
 Zulu
(UTC)
Morning civil twilight07:0211:02
Sunrise07:2611:26
Sunset18:5022:50
Evening civil twilight19:1323:13

Current date and time
Zulu (UTC)  18-Oct-2018 06:08:23
Local (UTC-4)  18-Oct-2018 02:08:23
 
METAR
KCOF 
9nm SE 
180556Z AUTO 10006KT 10SM CLR 27/24 A3014 RMK AO2 SLP211 T02710239 10274 20268 58001 $
KXMR 
11nm NE 
180556Z AUTO 13003KT 10SM CLR 25/23 A3014 RMK AO2 SLP209 T02480230 10255 20238 58000 $
KTIX 
12nm NW 
180050Z 10004KT 7SM SKC 28/23 A3015 RMK LAST
KMLB 
15nm S 
180553Z AUTO 10007KT 10SM CLR 28/23 A3015 RMK AO2 SLP207 T02780233 10278 20272 58001
KTTS 
17nm N 
180556Z AUTO 00000KT 10SM CLR 22/21 A3015 RMK AO2 SLP214 T02200213 10253 20218 50001 $
TAF
KCOF 
9nm SE 
180200Z 1802/1908 VRB06KT 9999 SCT035 QNH3010INS BECMG 1814/1815 07012KT 9999 SCT030 QNH3009INS TX33/1820Z TN25/1809Z LAST NO AMDS AFT 1804 NEXT 1810
KTIX 
12nm NW 
180520Z 1806/1906 10003KT P6SM FEW015 FM181500 03006KT P6SM SCT030 FM181800 04010KT P6SM SCT050 FM190200 06007KT P6SM VCSH SCT060 AMD NOT SKED 1806/1811
KMLB 
15nm S 
180520Z 1806/1906 10005KT P6SM SKC FM181600 07009KT P6SM SCT035 FM190000 08007KT P6SM SCT030
NOTAMs
Click for the latest NOTAMs
NOTAMs are issued by the DoD/FAA and will open in a separate window not controlled by AirNav.

 

 
 

FBO, Fuel Providers, and Aircraft Ground Support

  
 Business Name 
 
 Contact 
 
 Services / Description 
 
Fuel Prices
 
Comments
  
 Space Coast Aviation
321-453-2222
[web site]
[email]

Like us on facebook
Aviation fuel, Aircraft parking (ramp or tiedown), Flight training, Aircraft rental, Aerial tours / aerial sightseeing, Aerial photography, Aircraft maintenance, ...

More info about Space Coast Aviation
Phillips 66
100LL
FS $5.40 
SS $4.74 
GUARANTEED
 
   6 read write
FS=Full service
SS=Self service
Update Fuel Prices
 

Would you like to see your business listed on this page?

 If your business provides an interesting product or service to pilots, flight crews, aircraft, or users of the Merritt Island Airport, you should consider listing it here.  To start the listing process, click on the button below
 
Add a business
 

Other Pages about Merritt Island Airport

www.flairport.com
 
Update a link
 
Copyright © AirNav, LLC. All rights reserved. Privacy Policy  Contact